Aviation Digital Data Service (ADDS)

Output produced by METARs form (0019 UTC 01 December 2022)
found at http://aviationweather.gov/metar/data/
 
KCNM 302320Z 0100/0124 15009KT P6SM SCT250